createdAt,value
2018-05-12T00:06:08.138Z,52.3
2018-05-12T00:06:58.460Z,52.3
2018-05-12T00:07:47.985Z,52.3
2018-05-12T00:08:38.578Z,52.3
2018-05-12T00:09:28.665Z,52.3
2018-05-12T00:10:18.521Z,52.3
2018-05-12T00:11:08.481Z,52.3
2018-05-12T00:11:58.581Z,52.3
2018-05-12T00:12:48.885Z,52.3
2018-05-12T00:13:38.678Z,52.3
2018-05-12T00:14:28.766Z,52.3
2018-05-12T00:15:18.995Z,52.3
2018-05-12T00:16:08.872Z,52.3
2018-05-12T00:16:59.213Z,52.3
2018-05-12T00:17:48.992Z,52.3
2018-05-12T00:18:39.372Z,52.3
2018-05-12T00:19:29.126Z,52.3
2018-05-12T00:20:18.912Z,52.3
2018-05-12T00:21:09.239Z,52.3
2018-05-12T00:21:59.572Z,52.3
2018-05-12T00:22:49.090Z,52.3
2018-05-12T00:23:39.216Z,52.3
2018-05-12T00:24:29.812Z,52.3
2018-05-12T00:25:19.806Z,52.3
2018-05-12T00:26:09.917Z,52.2
2018-05-12T00:26:59.674Z,52.2
2018-05-12T00:27:50.042Z,52.2
2018-05-12T00:28:39.808Z,52.2
2018-05-12T00:29:30.164Z,52.2
2018-05-12T00:30:19.774Z,52.2
2018-05-12T00:31:10.037Z,52.2
2018-05-12T00:32:00.069Z,52.2
2018-05-12T00:32:50.142Z,52.2
2018-05-12T00:33:39.732Z,52.2
2018-05-12T00:34:30.596Z,52.2
2018-05-12T00:35:20.063Z,52.1
2018-05-12T00:36:10.397Z,52.1
2018-05-12T00:37:00.436Z,52.1
2018-05-12T00:37:49.951Z,52.1
2018-05-12T00:38:40.604Z,52.1
2018-05-12T00:39:30.921Z,52.1
2018-05-12T00:40:20.966Z,52.1
2018-05-12T00:41:11.014Z,52.1
2018-05-12T00:42:00.894Z,52.1
2018-05-12T00:42:51.485Z,52.1
2018-05-12T00:43:40.949Z,52.1
2018-05-12T00:44:31.031Z,52.1
2018-05-12T00:45:21.115Z,52.1
2018-05-12T00:46:11.399Z,52.1
2018-05-12T00:47:01.184Z,52.1
2018-05-12T00:47:51.561Z,52.1
2018-05-12T00:48:41.613Z,52.1
2018-05-12T00:49:31.118Z,52.1
2018-05-12T00:50:21.210Z,52.1
2018-05-12T00:51:11.533Z,52.1
2018-05-12T00:52:01.586Z,52.1
2018-05-12T00:52:51.626Z,52.1
2018-05-12T00:53:41.720Z,52
2018-05-12T00:54:32.056Z,52.1
2018-05-12T00:55:22.120Z,52
2018-05-12T00:56:11.972Z,52
2018-05-12T00:57:01.953Z,52
2018-05-12T00:57:52.111Z,52
2018-05-12T00:58:42.376Z,52
2018-05-12T00:59:32.147Z,52
2018-05-12T01:00:22.223Z,52
2018-05-12T01:01:12.275Z,52
2018-05-12T01:02:02.323Z,52
2018-05-12T01:02:52.670Z,52
2018-05-12T01:04:32.525Z,52
2018-05-12T01:13:44.525Z,51.9
2018-05-12T01:14:33.562Z,51.9
2018-05-12T01:15:23.062Z,51.9
2018-05-12T01:16:13.675Z,51.9
2018-05-12T01:17:03.181Z,51.9
2018-05-12T01:17:53.818Z,51.9
2018-05-12T01:18:43.885Z,51.9
2018-05-12T01:19:33.111Z,51.9
2018-05-12T01:20:23.438Z,51.9
2018-05-12T01:21:13.238Z,51.9
2018-05-12T01:22:03.585Z,51.8
2018-05-12T01:22:53.917Z,51.8
2018-05-12T01:23:43.696Z,51.9
2018-05-12T01:24:33.749Z,51.8
2018-05-12T01:25:24.133Z,51.8
2018-05-12T01:26:14.177Z,51.8
2018-05-12T01:27:04.240Z,51.8
2018-05-12T01:27:54.562Z,51.8
2018-05-12T01:28:44.362Z,51.8
2018-05-12T01:29:34.688Z,51.8
2018-05-12T01:30:23.924Z,51.8
2018-05-12T01:31:14.534Z,51.8
2018-05-12T01:32:04.352Z,51.8
2018-05-12T01:32:54.386Z,51.8
2018-05-12T01:33:44.761Z,51.8
2018-05-12T01:34:35.067Z,51.8
2018-05-12T01:35:24.585Z,51.8
2018-05-12T01:36:15.234Z,51.8
2018-05-12T01:37:05.293Z,51.8
2018-05-12T01:37:54.778Z,51.8
2018-05-12T01:38:45.092Z,51.8
2018-05-12T01:39:35.178Z,51.8
2018-05-12T01:40:24.672Z,51.8
2018-05-12T01:41:15.276Z,51.8
2018-05-12T01:42:05.333Z,51.8
2018-05-12T01:42:55.211Z,51.8
2018-05-12T01:43:45.577Z,51.8
2018-05-12T01:44:35.270Z,51.7
2018-05-12T01:45:25.320Z,51.7
2018-05-12T05:11:12.941Z,50.4
2018-05-12T05:12:03.844Z,50.4
2018-05-12T05:12:53.919Z,50.4
2018-05-12T05:13:44.546Z,50.4
2018-05-12T05:14:34.513Z,50.4
2018-05-12T05:15:25.504Z,50.4
2018-05-12T05:16:14.428Z,50.4
2018-05-12T05:17:04.239Z,50.4
2018-05-12T05:17:54.553Z,50.4
2018-05-12T05:18:45.057Z,50.4
2018-05-12T05:19:34.975Z,50.3
2018-05-12T05:20:24.932Z,50.3
2018-05-12T05:21:15.850Z,50.4
2018-05-12T05:22:04.877Z,50.3
2018-05-12T05:22:55.218Z,50.3
2018-05-12T05:23:45.183Z,50.3
2018-05-12T05:24:49.954Z,50.3
2018-05-12T05:25:25.216Z,50.3
2018-05-12T05:26:15.314Z,50.3
2018-05-12T05:27:05.240Z,50.3
2018-05-12T05:27:55.039Z,50.3
2018-05-12T05:28:45.054Z,50.3
2018-05-12T05:29:35.688Z,50.3
2018-05-12T05:30:25.208Z,50.3
2018-05-12T05:31:15.549Z,50.3
2018-05-12T05:32:06.040Z,50.3
2018-05-12T05:32:55.678Z,50.3
2018-05-12T05:33:45.999Z,50.3
2018-05-12T05:34:36.065Z,50.3
2018-05-12T05:35:26.131Z,50.3
2018-05-12T05:36:15.911Z,50.3
2018-05-12T05:37:05.976Z,50.3
2018-05-12T05:37:55.767Z,50.3
2018-05-12T05:38:46.194Z,50.3
2018-05-12T05:39:36.883Z,50.3
2018-05-12T05:40:26.019Z,50.3
2018-05-12T05:41:16.787Z,50.3
2018-05-12T05:42:06.820Z,50.2
2018-05-12T05:43:28.489Z,50.2
2018-05-12T05:43:47.079Z,50.2
2018-05-12T05:44:36.814Z,50.2
2018-05-12T05:45:26.320Z,50.2
2018-05-12T05:46:16.896Z,50.2
2018-05-12T05:47:07.261Z,50.2
2018-05-12T05:48:11.636Z,50.2
2018-05-12T05:48:46.541Z,50.2
2018-05-12T05:49:37.405Z,50.2
2018-05-12T05:50:27.250Z,50.2
2018-05-12T05:51:17.198Z,50.2
2018-05-12T05:52:07.578Z,50.1
2018-05-12T05:52:57.658Z,50.1
2018-05-12T05:53:47.475Z,50.1
2018-05-12T05:54:37.008Z,50.1
2018-05-12T05:55:27.599Z,50.1
2018-05-12T05:56:17.684Z,50.1
2018-05-12T05:57:07.815Z,50.1
2018-05-12T05:57:58.045Z,50.1
2018-05-12T05:58:47.297Z,50.1
2018-05-12T05:59:37.357Z,50.1
2018-05-12T06:00:27.958Z,50.1
2018-05-12T06:01:17.468Z,50.1
2018-05-12T06:02:07.550Z,50.1
2018-05-12T06:02:57.421Z,50.1
2018-05-12T06:03:48.436Z,50.1
2018-05-12T06:04:38.007Z,50.1
2018-05-12T06:05:28.542Z,50.1
2018-05-12T06:06:18.122Z,50.1
2018-05-12T06:07:08.620Z,50.1
2018-05-12T06:07:58.713Z,50.1
2018-05-12T06:08:49.011Z,50.1
2018-05-12T06:09:38.297Z,50.1
2018-05-12T06:10:28.443Z,50
2018-05-12T06:11:18.485Z,50
2018-05-12T06:12:08.947Z,50
2018-05-12T06:12:58.411Z,50
2018-05-12T06:13:49.034Z,50
2018-05-12T06:14:38.466Z,50
2018-05-12T06:15:29.062Z,50
2018-05-12T06:16:19.156Z,50
2018-05-12T06:17:09.348Z,50
2018-05-12T06:17:59.679Z,50
2018-05-12T06:18:48.538Z,50
2018-05-12T06:19:39.428Z,50
2018-05-12T06:20:29.482Z,49.9
2018-05-12T06:21:19.765Z,50
2018-05-12T06:22:09.604Z,49.9
2018-05-12T06:22:59.070Z,49.9
2018-05-12T06:23:50.173Z,49.9
2018-05-12T06:24:53.866Z,49.9
2018-05-12T06:25:29.538Z,49.9
2018-05-12T06:26:20.088Z,49.9
2018-05-12T06:27:09.711Z,49.9
2018-05-12T06:28:14.421Z,49.9
2018-05-12T06:28:49.793Z,49.9
2018-05-12T06:29:39.625Z,49.9
2018-05-12T06:30:31.314Z,49.9
2018-05-12T06:31:19.683Z,49.9
2018-05-12T06:32:10.284Z,49.9
2018-05-12T08:28:06.864Z,50.1
2018-05-12T08:29:11.054Z,50.1
2018-05-12T08:30:01.547Z,50.1
2018-05-12T08:30:36.819Z,50.1
2018-05-12T08:31:27.024Z,50.1
2018-05-12T08:32:16.861Z,50.1
2018-05-12T08:33:07.001Z,50.1
2018-05-12T08:34:26.381Z,50.1
2018-05-12T08:35:01.660Z,50.1
2018-05-12T08:35:37.782Z,50.1
2018-05-12T08:36:26.710Z,50.1
2018-05-12T08:37:17.464Z,50.1
2018-05-12T08:38:06.773Z,50.1
2018-05-12T08:39:11.798Z,50.1
2018-05-12T08:39:47.859Z,50.1
2018-05-12T08:40:37.782Z,50.1
2018-05-12T08:41:27.793Z,50.1
2018-05-12T08:42:17.068Z,50.1
2018-05-12T08:43:22.254Z,50.1
2018-05-12T08:44:12.414Z,50.1
2018-05-12T08:45:01.690Z,50.1
2018-05-12T08:45:37.423Z,50.1
2018-05-12T08:46:43.080Z,50.1
2018-05-12T08:47:17.484Z,50.1
2018-05-12T08:48:07.757Z,50.1
2018-05-12T08:50:03.738Z,50.1
2018-05-12T08:50:38.677Z,50.1
2018-05-12T08:51:28.989Z,50.1
2018-05-12T08:52:17.865Z,50.1
2018-05-12T08:53:22.614Z,50.1
2018-05-12T08:53:58.905Z,50.1
2018-05-12T08:55:03.007Z,50.1
2018-05-12T08:55:38.789Z,50.1
2018-05-12T08:56:28.641Z,50.1
2018-05-12T08:57:18.523Z,50.1
2018-05-12T08:58:09.102Z,50.1
2018-05-12T08:59:48.943Z,50.1
2018-05-12T09:00:38.982Z,50.1
2018-05-12T09:01:29.531Z,50.3
2018-05-12T09:02:18.661Z,50.4
2018-05-12T09:03:23.645Z,50.4
2018-05-12T09:03:59.220Z,50.6
2018-05-12T09:05:04.223Z,50.6
2018-05-12T09:05:38.555Z,50.7
2018-05-12T09:06:28.387Z,50.8
2018-05-12T09:07:20.107Z,50.9
2018-05-12T09:08:23.435Z,50.9
2018-05-12T09:08:59.831Z,51
2018-05-12T09:10:21.248Z,51.1
2018-05-12T09:10:39.022Z,51.2
2018-05-12T09:11:45.044Z,51.2
2018-05-12T09:12:34.330Z,51.3
2018-05-12T16:28:39.369Z,61.7
2018-05-12T16:30:43.676Z,61.7
2018-05-12T16:31:34.068Z,61.7
2018-05-12T16:32:23.414Z,61.7
2018-05-12T16:33:13.736Z,61.7
2018-05-12T16:34:03.550Z,61.7
2018-05-12T16:34:52.839Z,61.6
2018-05-12T16:35:43.454Z,61.6
2018-05-12T16:36:33.764Z,61.6
2018-05-12T16:37:24.716Z,61.6
2018-05-12T16:38:13.834Z,61.6
2018-05-12T16:39:04.180Z,61.6
2018-05-12T16:39:53.966Z,61.6
2018-05-12T16:40:43.564Z,61.6
2018-05-12T16:41:34.461Z,61.6
2018-05-12T16:42:24.173Z,61.6
2018-05-12T16:43:14.517Z,61.6
2018-05-12T16:44:03.749Z,61.6
2018-05-12T16:44:54.368Z,61.6
2018-05-12T16:45:44.411Z,61.6
2018-05-12T16:46:34.200Z,61.6
2018-05-12T16:47:24.278Z,61.6
2018-05-12T16:48:14.331Z,61.6
2018-05-12T16:49:04.720Z,61.5
2018-05-12T16:49:54.760Z,61.6
2018-05-12T16:50:46.006Z,61.5
2018-05-12T16:51:34.587Z,61.5
2018-05-12T16:52:24.938Z,61.5
2018-05-12T16:53:15.259Z,61.5
2018-05-12T16:54:05.087Z,61.5
2018-05-12T16:54:55.141Z,61.5
2018-05-12T16:55:45.210Z,61.5
2018-05-12T16:56:35.262Z,61.4
2018-05-12T16:57:25.116Z,61.4
2018-05-12T16:58:14.520Z,61.4
2018-05-12T16:59:05.928Z,61.4
2018-05-12T16:59:55.209Z,61.4
2018-05-12T17:00:45.300Z,61.4
2018-05-12T17:01:35.925Z,61.4
2018-05-12T17:02:26.004Z,61.4
2018-05-12T17:03:15.741Z,61.4
2018-05-12T17:04:05.828Z,61.4
2018-05-12T17:04:55.333Z,61.4
2018-05-12T17:05:46.248Z,61.4
2018-05-12T17:06:37.290Z,61.4
2018-05-12T17:07:25.780Z,61.4
2018-05-12T17:08:16.416Z,61.4
2018-05-12T17:09:06.231Z,61.4
2018-05-12T17:09:56.626Z,61.4
2018-05-12T17:10:46.334Z,61.4
2018-05-12T17:11:36.395Z,61.3
2018-05-12T17:12:27.119Z,61.3
2018-05-12T17:13:17.159Z,61.3
2018-05-12T17:14:06.854Z,61.3
2018-05-12T17:14:56.921Z,61.3
2018-05-12T17:15:47.056Z,61.3
2018-05-12T17:16:36.475Z,61.3
2018-05-12T17:17:26.852Z,61.3
2018-05-12T17:18:17.201Z,61.3
2018-05-12T17:19:06.480Z,61.3
2018-05-12T17:19:57.322Z,61.3
2018-05-12T17:20:47.356Z,61.3
2018-05-12T17:21:37.624Z,61.3
2018-05-12T17:22:27.474Z,61.3
2018-05-12T17:23:18.408Z,61.3
2018-05-12T17:24:07.142Z,61.3
2018-05-12T17:24:57.643Z,61.3
2018-05-12T17:25:46.689Z,61.2
2018-05-12T17:26:37.629Z,61.2
2018-05-12T17:27:27.588Z,61.2
2018-05-12T17:28:17.381Z,61.2
2018-05-12T17:29:07.712Z,61.2
2018-05-12T17:29:58.364Z,61.2
2018-05-12T17:30:47.542Z,61.2
2018-05-12T17:31:37.715Z,61.1
2018-05-12T17:32:28.034Z,61.2
2018-05-12T17:33:18.327Z,61.2
2018-05-12T17:34:08.366Z,61.1
2018-05-12T17:34:57.590Z,61.1
2018-05-12T17:35:48.268Z,61.1
2018-05-12T17:36:38.557Z,61.1
2018-05-12T17:37:28.188Z,61.1
2018-05-12T17:38:17.841Z,61.1
2018-05-12T17:39:08.474Z,61.1
2018-05-12T17:39:57.944Z,61.1
2018-05-12T17:40:48.039Z,61.1
2018-05-12T17:41:38.680Z,61.1
2018-05-12T17:42:28.724Z,61.1
2018-05-12T17:43:18.543Z,61.1
2018-05-12T17:44:09.107Z,61.1
2018-05-12T17:44:58.735Z,61.1
2018-05-12T17:45:48.970Z,61.1
2018-05-12T17:46:39.016Z,61.1
2018-05-12T17:47:29.111Z,61.1
2018-05-12T17:48:19.138Z,61
2018-05-12T17:49:09.473Z,61
2018-05-12T17:49:59.316Z,61
2018-05-12T17:50:49.631Z,61
2018-05-12T17:51:38.606Z,61
2018-05-12T17:52:29.463Z,61
2018-05-12T17:53:19.520Z,61
2018-05-12T17:54:09.305Z,61
2018-05-12T17:54:59.939Z,61
2018-05-12T17:55:50.190Z,60.9
2018-05-12T17:56:39.855Z,60.9
2018-05-12T17:57:29.539Z,60.9
2018-05-12T17:58:19.907Z,60.9
2018-05-12T17:59:10.206Z,60.9
2018-05-12T18:00:00.338Z,60.9
2018-05-12T18:00:49.805Z,60.9
2018-05-12T18:01:40.142Z,60.9
2018-05-12T18:02:30.042Z,60.9
2018-05-12T18:03:19.520Z,60.9
2018-05-12T18:04:10.607Z,60.9
2018-05-12T18:05:00.435Z,60.9
2018-05-12T18:05:50.746Z,60.9
2018-05-12T18:06:40.469Z,60.9
2018-05-12T18:07:30.303Z,60.9
2018-05-12T18:08:20.922Z,60.9
2018-05-12T18:09:10.967Z,60.9
2018-05-12T18:10:01.021Z,60.9
2018-05-12T18:10:51.110Z,60.9
2018-05-12T18:11:40.911Z,60.9
2018-05-12T18:12:30.366Z,60.9
2018-05-12T18:13:21.398Z,60.8
2018-05-12T18:14:11.060Z,60.9
2018-05-12T18:15:00.927Z,60.8
2018-05-12T18:15:51.483Z,60.8
2018-05-12T18:16:41.608Z,60.8
2018-05-12T18:17:32.041Z,60.8
2018-05-12T18:18:21.481Z,60.8
2018-05-12T18:19:11.716Z,60.8
2018-05-12T18:20:01.503Z,60.8
2018-05-12T18:20:51.839Z,60.8
2018-05-12T18:21:41.645Z,60.8
2018-05-12T18:22:31.956Z,60.8
2018-05-12T18:23:21.937Z,60.8
2018-05-12T18:24:11.781Z,60.8
2018-05-12T18:25:02.140Z,60.8
2018-05-12T18:25:51.922Z,60.8
2018-05-12T18:26:41.753Z,60.8
2018-05-12T18:27:32.035Z,60.7
2018-05-12T18:28:22.412Z,60.8
2018-05-12T18:29:12.588Z,60.8
2018-05-12T18:30:02.552Z,60.7
2018-05-12T18:30:52.589Z,60.7
2018-05-12T18:31:42.075Z,60.7
2018-05-12T18:32:31.589Z,60.7
2018-05-12T18:33:22.539Z,60.7
2018-05-12T18:34:12.542Z,60.7
2018-05-12T18:35:02.927Z,60.6
2018-05-12T18:35:52.677Z,60.6
2018-05-12T18:36:43.118Z,60.6
2018-05-12T18:37:32.571Z,60.6
2018-05-12T18:38:22.341Z,60.6
2018-05-12T18:39:12.943Z,60.6
2018-05-12T18:40:02.519Z,60.6
2018-05-12T18:40:51.743Z,60.6
2018-05-12T18:41:42.655Z,60.6
2018-05-12T18:42:32.133Z,60.6
2018-05-12T18:43:22.861Z,60.6
2018-05-12T18:44:13.918Z,60.6
2018-05-12T18:45:03.218Z,60.6
2018-05-12T18:45:53.045Z,60.6
2018-05-12T18:46:43.307Z,60.6
2018-05-12T18:47:32.802Z,60.6
2018-05-12T18:48:23.934Z,60.6
2018-05-12T18:49:13.958Z,60.6
2018-05-12T18:50:03.791Z,60.6
2018-05-12T18:50:54.137Z,60.6
2018-05-12T18:51:44.173Z,60.5
2018-05-12T18:52:34.222Z,60.5
2018-05-12T18:53:24.048Z,60.5
2018-05-12T18:54:14.088Z,60.5
2018-05-12T18:55:04.149Z,60.5
2018-05-12T18:55:54.489Z,60.5
2018-05-12T18:56:45.090Z,60.5
2018-05-12T18:57:34.638Z,60.5
2018-05-12T18:58:24.680Z,60.5
2018-05-12T18:59:14.226Z,60.5
2018-05-12T19:00:04.573Z,60.4
2018-05-12T19:00:54.852Z,60.5
2018-05-12T19:01:44.368Z,60.4
2018-05-12T19:02:34.177Z,60.4
2018-05-12T19:03:25.061Z,60.4
2018-05-12T19:04:15.104Z,60.4
2018-05-12T19:05:04.941Z,60.4
2018-05-12T19:05:54.948Z,60.4
2018-05-12T19:06:45.014Z,60.4
2018-05-12T19:07:35.060Z,60.4
2018-05-12T19:08:26.360Z,60.4
2018-05-12T19:09:15.493Z,60.4
2018-05-12T19:10:05.281Z,60.4
2018-05-12T19:10:55.450Z,60.4
2018-05-12T19:11:45.664Z,60.4
2018-05-12T19:12:35.524Z,60.4
2018-05-12T19:13:25.543Z,60.4
2018-05-12T19:14:15.872Z,60.4
2018-05-12T19:15:05.763Z,60.4
2018-05-12T19:15:55.123Z,60.3
2018-05-12T19:16:45.512Z,60.3
2018-05-12T19:17:35.822Z,60.3
2018-05-12T19:18:25.913Z,60.3
2018-05-12T19:19:15.975Z,60.3
2018-05-12T19:20:06.344Z,60.3
2018-05-12T19:20:56.119Z,60.3
2018-05-12T19:21:45.873Z,60.3
2018-05-12T19:22:37.287Z,60.3
2018-05-12T19:23:26.301Z,60.3
2018-05-12T19:24:16.725Z,60.3
2018-05-12T19:25:06.469Z,60.3
2018-05-12T19:25:56.767Z,60.3
2018-05-12T19:26:46.820Z,60.3
2018-05-12T19:27:36.866Z,60.3
2018-05-12T19:28:26.652Z,60.3
2018-05-12T19:29:16.475Z,60.3
2018-05-12T19:30:07.060Z,60.3
2018-05-12T19:30:56.572Z,60.3
2018-05-12T19:31:47.182Z,60.3
2018-05-12T19:32:36.677Z,60.3
2018-05-12T19:33:27.319Z,60.2
2018-05-12T19:34:17.147Z,60.2
2018-05-12T19:35:07.456Z,60.2
2018-05-12T19:35:57.519Z,60.2
2018-05-12T19:36:46.614Z,60.2
2018-05-12T19:37:37.369Z,60.2
2018-05-12T19:38:27.709Z,60.2
2018-05-12T19:39:17.791Z,60.1
2018-05-12T19:40:07.564Z,60.2
2018-05-12T19:40:57.941Z,60.1
2018-05-12T19:41:47.649Z,60.1
2018-05-12T19:42:37.728Z,60.1
2018-05-12T19:43:28.150Z,60.1
2018-05-12T19:44:18.139Z,60.1
2018-05-12T19:45:08.287Z,60.1
2018-05-12T19:45:58.011Z,60.1
2018-05-12T19:46:48.305Z,60.1
2018-05-12T19:47:38.136Z,60.1
2018-05-12T19:48:27.917Z,60.1
2018-05-12T19:49:18.513Z,60.1
2018-05-12T19:50:08.267Z,60.1
2018-05-12T19:50:58.334Z,60.1
2018-05-12T19:51:48.425Z,60.1
2018-05-12T19:52:38.504Z,60.1
2018-05-12T19:53:28.258Z,60.1
2018-05-12T19:54:18.066Z,60.1
2018-05-12T19:55:08.676Z,60
2018-05-12T19:55:58.819Z,60.1
2018-05-12T19:56:49.425Z,60.1
2018-05-12T19:57:39.278Z,60
2018-05-12T19:58:28.944Z,60
2018-05-12T19:59:19.013Z,60
2018-05-12T20:00:09.066Z,60
2018-05-12T20:00:58.846Z,60
2018-05-12T20:01:49.530Z,60
2018-05-12T20:02:39.270Z,60
2018-05-12T20:03:29.599Z,59.9
2018-05-12T20:04:19.677Z,60
2018-05-12T20:05:09.223Z,59.9
2018-05-12T20:05:59.507Z,59.9
2018-05-12T20:06:49.878Z,59.9
2018-05-12T20:07:39.734Z,59.9
2018-05-12T20:08:29.736Z,59.9
2018-05-12T20:09:19.762Z,59.9
2018-05-12T20:10:10.175Z,59.9
2018-05-12T20:11:00.316Z,59.9
2018-05-12T20:11:50.361Z,59.9
2018-05-12T20:12:39.806Z,59.9
2018-05-12T20:13:30.482Z,59.9
2018-05-12T20:14:19.929Z,59.9
2018-05-12T20:15:09.686Z,59.9
2018-05-12T20:16:01.051Z,59.9
2018-05-12T20:16:50.397Z,59.9
2018-05-12T20:17:40.164Z,59.9
2018-05-12T20:18:30.829Z,59.9
2018-05-12T20:19:20.896Z,59.9
2018-05-12T20:20:10.043Z,59.9
2018-05-12T20:21:00.443Z,59.9
2018-05-12T20:21:50.790Z,59.8
2018-05-12T20:22:41.128Z,59.8
2018-05-12T20:23:30.040Z,59.8
2018-05-12T20:24:20.765Z,59.8
2018-05-12T20:25:10.845Z,59.8
2018-05-12T20:26:00.676Z,59.8
2018-05-12T20:26:50.371Z,59.8
2018-05-12T20:27:40.433Z,59.8
2018-05-12T20:28:30.987Z,59.8
2018-05-12T20:29:21.068Z,59.8
2018-05-12T20:30:11.110Z,59.8
2018-05-12T20:31:01.840Z,59.8
2018-05-12T20:31:51.333Z,59.8
2018-05-12T20:32:41.302Z,59.8
2018-05-12T20:33:31.605Z,59.8
2018-05-12T20:34:21.934Z,59.8
2018-05-12T20:35:11.971Z,59.8
2018-05-12T20:36:01.731Z,59.8
2018-05-12T20:36:52.105Z,59.8
2018-05-12T20:37:40.879Z,59.7
2018-05-12T20:38:31.953Z,59.7
2018-05-12T20:39:21.740Z,59.7
2018-05-12T20:40:11.786Z,59.7
2018-05-12T20:41:02.389Z,59.7
2018-05-12T20:41:52.470Z,59.7
2018-05-12T20:42:42.572Z,59.7
2018-05-12T20:43:32.593Z,59.7
2018-05-12T20:44:22.100Z,59.6
2018-05-12T20:45:11.885Z,59.6
2018-05-12T20:46:02.490Z,59.6
2018-05-12T20:46:52.327Z,59.6
2018-05-12T20:47:42.897Z,59.6
2018-05-12T20:48:33.062Z,59.6
2018-05-12T20:49:23.013Z,59.6
2018-05-12T20:50:12.828Z,59.6
2018-05-12T20:51:03.148Z,59.6
2018-05-12T20:51:53.218Z,59.6
2018-05-12T20:52:43.300Z,59.6
2018-05-12T20:53:32.762Z,59.6
2018-05-12T20:54:23.405Z,59.6
2018-05-12T20:55:13.294Z,59.6
2018-05-12T20:56:03.534Z,59.5
2018-05-12T20:56:53.634Z,59.6
2018-05-12T20:57:42.904Z,59.5
2018-05-12T20:58:33.770Z,59.6
2018-05-12T20:59:23.518Z,59.6
2018-05-12T21:00:13.559Z,59.5
2018-05-12T21:01:03.903Z,59.5
2018-05-12T21:01:53.669Z,59.5
2018-05-12T21:02:44.049Z,59.5
2018-05-12T21:03:34.081Z,59.5
2018-05-12T21:04:23.884Z,59.5
2018-05-12T21:05:14.209Z,59.5
2018-05-12T21:06:04.271Z,59.5
2018-05-12T21:06:54.319Z,59.4
2018-05-12T21:07:43.837Z,59.4
2018-05-12T21:08:33.899Z,59.4
2018-05-12T21:09:24.560Z,59.4
2018-05-12T21:10:14.578Z,59.4
2018-05-12T21:11:04.633Z,59.4
2018-05-12T21:11:54.133Z,59.4
2018-05-12T21:12:44.786Z,59.4
2018-05-12T21:13:34.294Z,59.4
2018-05-12T21:14:25.824Z,59.4
2018-05-12T21:15:14.673Z,59.4
2018-05-12T21:16:04.696Z,59.4
2018-05-12T21:16:54.503Z,59.4
2018-05-12T21:17:44.421Z,59.4
2018-05-12T21:18:34.880Z,59.4
2018-05-12T21:19:24.173Z,59.4
2018-05-12T21:20:15.350Z,59.4
2018-05-12T21:21:05.125Z,59.4
2018-05-12T21:21:54.888Z,59.4
2018-05-12T21:22:44.980Z,59.4
2018-05-12T21:23:35.374Z,59.3
2018-05-12T21:24:25.660Z,59.4
2018-05-12T21:25:15.445Z,59.3
2018-05-12T21:26:05.508Z,59.3
2018-05-12T21:26:55.559Z,59.3
2018-05-12T21:27:46.040Z,59.3
2018-05-12T21:28:35.976Z,59.3
2018-05-12T21:29:26.397Z,59.3
2018-05-12T21:30:15.801Z,59.3
2018-05-12T21:31:05.925Z,59.3
2018-05-12T21:31:56.183Z,59.3
2018-05-12T21:32:45.465Z,59.3
2018-05-12T21:33:35.582Z,59.3
2018-05-12T21:34:26.509Z,59.3
2018-05-12T21:35:16.250Z,59.3
2018-05-12T21:36:06.552Z,59.3
2018-05-12T21:36:56.379Z,59.3
2018-05-12T21:37:46.710Z,59.3
2018-05-12T21:38:36.412Z,59.3
2018-05-12T21:39:26.783Z,59.2
2018-05-12T21:40:16.824Z,59.2
2018-05-12T21:41:06.327Z,59.2
2018-05-12T21:41:56.130Z,59.2
2018-05-12T21:42:46.745Z,59.2
2018-05-12T21:43:36.802Z,59.2
2018-05-12T21:44:26.895Z,59.2
2018-05-12T21:45:17.235Z,59.2
2018-05-12T21:46:07.993Z,59.2
2018-05-12T21:46:57.338Z,59.2
2018-05-12T21:47:47.149Z,59.2
2018-05-12T21:48:37.484Z,59.1
2018-05-12T21:49:27.604Z,59.1
2018-05-12T21:50:17.346Z,59.1
2018-05-12T21:51:07.385Z,59.1
2018-05-12T21:51:57.442Z,59.1
2018-05-12T21:52:47.527Z,59.1
2018-05-12T21:53:37.359Z,59.1
2018-05-12T21:54:27.931Z,59.1
2018-05-12T21:55:18.002Z,59.1
2018-05-12T21:56:07.765Z,59.1
2018-05-12T21:56:58.075Z,59.1
2018-05-12T21:57:47.589Z,59.1
2018-05-12T21:58:38.258Z,59.1
2018-05-12T21:59:27.987Z,59.1
2018-05-12T22:00:18.458Z,59.1
2018-05-12T22:01:07.851Z,59.1
2018-05-12T22:01:57.886Z,59.1
2018-05-12T22:02:48.003Z,59.1
2018-05-12T22:03:38.585Z,59.1
2018-05-12T22:04:28.711Z,59
2018-05-12T22:05:18.713Z,59
2018-05-12T22:06:08.556Z,59
2018-05-12T22:06:58.023Z,59
2018-05-12T22:07:48.823Z,59
2018-05-12T22:08:38.975Z,59
2018-05-12T22:09:28.490Z,59
2018-05-12T22:10:19.096Z,59
2018-05-12T22:11:09.156Z,58.9
2018-05-12T22:11:58.377Z,59
2018-05-12T22:12:49.027Z,58.9
2018-05-12T22:13:39.364Z,58.9
2018-05-12T22:14:29.391Z,58.9
2018-05-12T22:15:19.168Z,58.9
2018-05-12T22:16:08.382Z,58.9
2018-05-12T22:16:59.014Z,58.9
2018-05-12T22:17:49.113Z,58.9
2018-05-12T22:18:40.313Z,58.9
2018-05-12T22:19:29.825Z,58.9
2018-05-12T22:20:19.841Z,58.9
2018-05-12T22:21:09.639Z,58.9
2018-05-12T22:21:59.171Z,58.9
2018-05-12T22:22:50.107Z,58.9
2018-05-12T22:23:40.123Z,58.9
2018-05-12T22:24:29.686Z,58.9
2018-05-12T22:25:19.665Z,58.9
2018-05-12T22:26:10.012Z,58.9
2018-05-12T22:27:00.052Z,58.9
2018-05-12T22:27:50.166Z,58.9
2018-05-12T22:28:39.944Z,58.8
2018-05-12T22:29:30.549Z,58.8
2018-05-12T22:30:19.785Z,58.8
2018-05-12T22:31:10.110Z,58.8
2018-05-12T22:32:00.755Z,58.8
2018-05-12T22:32:50.788Z,58.8
2018-05-12T22:33:40.834Z,58.8
2018-05-12T22:34:30.056Z,58.8
2018-05-12T22:35:20.410Z,58.8
2018-05-12T22:36:11.051Z,58.8
2018-05-12T22:37:00.821Z,58.8
2018-05-12T22:37:51.140Z,58.8
2018-05-12T22:38:41.219Z,58.8
2018-05-12T22:39:31.299Z,58.8
2018-05-12T22:40:20.529Z,58.8
2018-05-12T22:41:11.442Z,58.8
2018-05-12T22:42:01.474Z,58.8
2018-05-12T22:42:51.297Z,58.8
2018-05-12T22:43:41.609Z,58.8
2018-05-12T22:44:31.740Z,58.7
2018-05-12T22:45:21.452Z,58.8
2018-05-12T22:46:11.517Z,58.7
2018-05-12T22:47:01.877Z,58.7
2018-05-12T22:47:51.647Z,58.7
2018-05-12T22:48:41.773Z,58.7
2018-05-12T22:49:32.103Z,58.7
2018-05-12T22:50:22.137Z,58.7
2018-05-12T22:51:11.899Z,58.7
2018-05-12T22:52:02.250Z,58.7
2018-05-12T22:52:52.022Z,58.6
2018-05-12T22:53:42.122Z,58.6
2018-05-12T22:54:32.177Z,58.6
2018-05-12T22:55:21.967Z,58.6
2018-05-12T22:56:12.590Z,58.6
2018-05-12T22:57:02.332Z,58.6
2018-05-12T22:57:52.690Z,58.6
2018-05-12T22:58:42.448Z,58.6
2018-05-12T22:59:32.829Z,58.6
2018-05-12T23:00:22.291Z,58.6
2018-05-12T23:01:12.671Z,58.6
2018-05-12T23:02:02.975Z,58.6
2018-05-12T23:08:43.478Z,58.5
2018-05-12T23:10:23.604Z,58.5
2018-05-12T23:11:13.749Z,58.5
2018-05-12T23:12:03.781Z,58.5
2018-05-12T23:12:53.521Z,58.5
2018-05-12T23:13:43.861Z,58.5
2018-05-12T23:14:33.662Z,58.5
2018-05-12T23:15:23.952Z,58.5
2018-05-12T23:16:13.495Z,58.5
2018-05-12T23:17:03.356Z,58.4
2018-05-12T23:17:54.193Z,58.4
2018-05-12T23:18:44.224Z,58.4
2018-05-12T23:19:34.371Z,58.4
2018-05-12T23:20:23.833Z,58.4
2018-05-12T23:21:14.421Z,58.4
2018-05-12T23:22:04.196Z,58.4
2018-05-12T23:22:54.013Z,58.4
2018-05-12T23:23:44.067Z,58.4
2018-05-12T23:24:34.415Z,58.4
2018-05-12T23:25:24.957Z,58.4
2018-05-12T23:26:14.494Z,58.4
2018-05-12T23:27:04.608Z,58.4
2018-05-12T23:27:54.656Z,58.4
2018-05-12T23:28:44.141Z,58.4
2018-05-12T23:29:34.748Z,58.4
2018-05-12T23:30:25.101Z,58.4
2018-05-12T23:31:14.322Z,58.4
2018-05-12T23:32:05.218Z,58.4
2018-05-12T23:32:55.256Z,58.3
2018-05-12T23:33:45.334Z,58.4
2018-05-12T23:34:35.380Z,58.3
2018-05-12T23:35:25.193Z,58.3
2018-05-12T23:36:15.248Z,58.3
2018-05-12T23:37:05.588Z,58.3
2018-05-12T23:37:55.689Z,58.3
2018-05-12T23:38:45.187Z,58.3
2018-05-12T23:39:35.535Z,58.3
2018-05-12T23:40:25.862Z,58.3
2018-05-12T23:41:15.369Z,58.3
2018-05-12T23:42:05.184Z,58.3
2018-05-12T23:42:56.051Z,58.3
2018-05-12T23:43:45.548Z,58.3
2018-05-12T23:44:35.881Z,58.3
2018-05-12T23:45:26.256Z,58.3
2018-05-12T23:46:16.024Z,58.3
2018-05-12T23:47:06.366Z,58.3
2018-05-12T23:47:55.582Z,58.3
2018-05-12T23:48:45.630Z,58.3
2018-05-12T23:49:36.529Z,58.3
2018-05-12T23:50:26.599Z,58.3
2018-05-12T23:51:16.607Z,58.3
2018-05-12T23:52:06.158Z,58.2
2018-05-12T23:52:56.548Z,58.2
2018-05-12T23:53:46.305Z,58.2
2018-05-12T23:54:36.917Z,58.2
2018-05-12T23:55:26.730Z,58.2
2018-05-12T23:56:17.028Z,58.2
2018-05-12T23:57:06.828Z,58.2
2018-05-12T23:57:56.912Z,58.2
2018-05-12T23:58:46.967Z,58.2
2018-05-12T23:59:37.023Z,58.1
